Portada
METAR-TAF:

METAR-TAF

Aeropuertos :

Cheliábinsk, Rusia

latitud: 55-10N, longitud: 061-24E, altitud: 234 m

Observación

El informe se hizo hace 21 minutos, a las 06:00 UTC
Viento 2 kt del este
Temperatura -10°C
Humedad 92%
Presión 1024 hPa
Visibilidad: 3200 m
Escasas nubes a una altura de 4000 ft
neblina

METAR: USCC 130600Z 10001MPS 3200 BR FEW040 M10/M11 Q1024 R09/000060 NOSIG RMK QFE747

Hora: 11:21 (06:21 UTC)

Pronóstico

El informe se hizo hace 1 hora y 21 minutos, a las 05:00 UTC
Pronóstico válido del 13 a las 06 UTC al 14 a las 06 UTC
Viento 6 kt del este-noreste
Visibilidad: 5000 m
neblina
Temporalmente
del 13 a las 06 UTC al 14 a las 06 UTC
Viento 6 kt del norte con ráfagas de 16 kt
Visibilidad: 3100 m
a una altura de 1100 ft
neblina, humo

TAF: USCC 130500Z 1306/1406 06003MPS 5000 BR NSC TEMPO 1306/1406 36003G08MPS 3100 BR FU VV011

Observaciones y pronósticos meteorológicos de más de 4000 aeropuertos (mensajes METAR y TAF).

Los puntos amarillos y rojos representan las estaciones disponibles.

Ponga el ratón en el punto deseado para ver el nombre de la estación.

Haga clic para ver las observaciones y los pronósticos meteorológicos.

Para cambiar el mapa : haga clic en los botones verdes con una cruz de color negro para hacer un zoom, en el botón verde con un guión para alejar o en las flechas verdes para mapas adyacentes.


METAR-TAF: